sensor_id;sensor_type;location;lat;lon;timestamp;pressure;altitude;pressure_sealevel;temperature;humidity
80248;BME280;69560;52.206;21.018;2023-09-07T00:00:59;101126.27;;;20.38;51.77
80248;BME280;69560;52.206;21.018;2023-09-07T00:03:35;101125.77;;;20.38;52.03
80248;BME280;69560;52.206;21.018;2023-09-07T00:06:07;101127.23;;;20.39;52.12
80248;BME280;69560;52.206;21.018;2023-09-07T00:08:34;101130.04;;;20.39;52.10
80248;BME280;69560;52.206;21.018;2023-09-07T00:11:05;101132.46;;;20.38;52.26
80248;BME280;69560;52.206;21.018;2023-09-07T00:13:32;101134.31;;;20.39;52.24
80248;BME280;69560;52.206;21.018;2023-09-07T00:16:00;101133.91;;;20.38;52.38
80248;BME280;69560;52.206;21.018;2023-09-07T00:18:27;101129.58;;;20.38;52.34
80248;BME280;69560;52.206;21.018;2023-09-07T00:20:54;101132.70;;;20.37;52.45
80248;BME280;69560;52.206;21.018;2023-09-07T00:23:20;101130.63;;;20.36;52.30
80248;BME280;69560;52.206;21.018;2023-09-07T00:25:47;101131.50;;;20.36;52.46
80248;BME280;69560;52.206;21.018;2023-09-07T00:28:14;101131.34;;;20.36;52.45
80248;BME280;69560;52.206;21.018;2023-09-07T00:30:40;101129.11;;;20.36;52.69
80248;BME280;69560;52.206;21.018;2023-09-07T00:33:07;101131.84;;;20.35;52.63
80248;BME280;69560;52.206;21.018;2023-09-07T00:35:34;101134.81;;;20.36;52.45
80248;BME280;69560;52.206;21.018;2023-09-07T00:38:01;101129.44;;;20.34;52.71
80248;BME280;69560;52.206;21.018;2023-09-07T00:40:27;101130.45;;;20.37;52.75
80248;BME280;69560;52.206;21.018;2023-09-07T00:42:54;101129.24;;;20.37;52.54
80248;BME280;69560;52.206;21.018;2023-09-07T00:45:20;101127.48;;;20.37;52.70
80248;BME280;69560;52.206;21.018;2023-09-07T00:47:47;101126.67;;;20.38;52.78
80248;BME280;69560;52.206;21.018;2023-09-07T00:50:14;101126.83;;;20.38;52.75
80248;BME280;69560;52.206;21.018;2023-09-07T00:52:42;101129.73;;;20.36;52.80
80248;BME280;69560;52.206;21.018;2023-09-07T00:55:09;101131.92;;;20.34;52.74
80248;BME280;69560;52.206;21.018;2023-09-07T00:57:37;101129.91;;;20.33;52.80
80248;BME280;69560;52.206;21.018;2023-09-07T01:00:06;101131.95;;;20.32;52.85
80248;BME280;69560;52.206;21.018;2023-09-07T01:02:34;101131.70;;;20.30;52.91
80248;BME280;69560;52.206;21.018;2023-09-07T01:05:02;101125.61;;;20.27;53.13
80248;BME280;69560;52.206;21.018;2023-09-07T01:07:43;101129.48;;;20.25;53.11
80248;BME280;69560;52.206;21.018;2023-09-07T01:10:12;101123.47;;;20.23;53.21
80248;BME280;69560;52.206;21.018;2023-09-07T01:12:40;101118.91;;;20.17;53.22
80248;BME280;69560;52.206;21.018;2023-09-07T01:15:07;101119.77;;;20.16;53.06
80248;BME280;69560;52.206;21.018;2023-09-07T01:17:34;101123.73;;;20.13;53.10
80248;BME280;69560;52.206;21.018;2023-09-07T01:20:04;101122.45;;;20.13;53.10
80248;BME280;69560;52.206;21.018;2023-09-07T01:22:36;101119.70;;;20.15;53.26
80248;BME280;69560;52.206;21.018;2023-09-07T01:25:05;101120.41;;;20.17;53.42
80248;BME280;69560;52.206;21.018;2023-09-07T01:27:33;101121.15;;;20.17;53.28
80248;BME280;69560;52.206;21.018;2023-09-07T01:30:00;101118.91;;;20.16;53.25
80248;BME280;69560;52.206;21.018;2023-09-07T01:32:28;101123.66;;;20.20;53.38
80248;BME280;69560;52.206;21.018;2023-09-07T01:34:57;101122.92;;;20.18;53.29
80248;BME280;69560;52.206;21.018;2023-09-07T01:37:24;101128.48;;;20.19;53.41
80248;BME280;69560;52.206;21.018;2023-09-07T01:39:51;101125.57;;;20.18;53.32
80248;BME280;69560;52.206;21.018;2023-09-07T01:42:17;101126.86;;;20.17;53.46
80248;BME280;69560;52.206;21.018;2023-09-07T01:44:43;101129.11;;;20.16;53.61
80248;BME280;69560;52.206;21.018;2023-09-07T01:47:10;101128.80;;;20.15;53.50
80248;BME280;69560;52.206;21.018;2023-09-07T01:49:37;101126.23;;;20.13;53.57
80248;BME280;69560;52.206;21.018;2023-09-07T01:52:03;101125.94;;;20.08;53.50
80248;BME280;69560;52.206;21.018;2023-09-07T01:54:30;101130.93;;;20.08;53.70
80248;BME280;69560;52.206;21.018;2023-09-07T01:56:57;101134.55;;;20.08;53.67
80248;BME280;69560;52.206;21.018;2023-09-07T01:59:24;101135.35;;;20.06;53.70
80248;BME280;69560;52.206;21.018;2023-09-07T02:01:50;101134.73;;;20.03;53.50
80248;BME280;69560;52.206;21.018;2023-09-07T02:04:17;101135.08;;;20.00;53.53
80248;BME280;69560;52.206;21.018;2023-09-07T02:06:43;101137.16;;;20.00;53.71
80248;BME280;69560;52.206;21.018;2023-09-07T02:09:10;101137.24;;;20.01;53.87
80248;BME280;69560;52.206;21.018;2023-09-07T02:11:36;101133.73;;;19.96;53.73
80248;BME280;69560;52.206;21.018;2023-09-07T02:14:03;101134.15;;;19.92;53.95
80248;BME280;69560;52.206;21.018;2023-09-07T02:16:29;101130.54;;;19.91;53.91
80248;BME280;69560;52.206;21.018;2023-09-07T02:19:03;101127.65;;;19.88;53.89
80248;BME280;69560;52.206;21.018;2023-09-07T02:21:30;101130.23;;;19.85;54.18
80248;BME280;69560;52.206;21.018;2023-09-07T02:23:57;101129.70;;;19.83;54.11
80248;BME280;69560;52.206;21.018;2023-09-07T02:26:24;101130.17;;;19.82;54.16
80248;BME280;69560;52.206;21.018;2023-09-07T02:28:50;101131.21;;;19.83;54.22
80248;BME280;69560;52.206;21.018;2023-09-07T02:31:17;101129.61;;;19.82;54.30
80248;BME280;69560;52.206;21.018;2023-09-07T02:33:43;101132.02;;;19.83;54.34
80248;BME280;69560;52.206;21.018;2023-09-07T02:36:10;101130.48;;;19.84;54.39
80248;BME280;69560;52.206;21.018;2023-09-07T02:38:36;101135.86;;;19.87;54.47
80248;BME280;69560;52.206;21.018;2023-09-07T02:41:03;101138.04;;;19.87;54.51
80248;BME280;69560;52.206;21.018;2023-09-07T02:43:29;101134.66;;;19.86;54.34
80248;BME280;69560;52.206;21.018;2023-09-07T02:45:56;101135.08;;;19.82;54.31
80248;BME280;69560;52.206;21.018;2023-09-07T02:48:22;101137.82;;;19.79;54.40
80248;BME280;69560;52.206;21.018;2023-09-07T02:50:49;101142.42;;;19.77;54.40
80248;BME280;69560;52.206;21.018;2023-09-07T02:53:16;101140.73;;;19.76;54.42
80248;BME280;69560;52.206;21.018;2023-09-07T02:55:43;101142.28;;;19.72;54.45
80248;BME280;69560;52.206;21.018;2023-09-07T02:58:09;101139.31;;;19.69;54.65
80248;BME280;69560;52.206;21.018;2023-09-07T03:00:41;101143.17;;;19.66;54.60
80248;BME280;69560;52.206;21.018;2023-09-07T03:03:09;101141.83;;;19.63;54.83
80248;BME280;69560;52.206;21.018;2023-09-07T03:05:35;101141.28;;;19.61;54.67
80248;BME280;69560;52.206;21.018;2023-09-07T03:08:02;101141.45;;;19.60;54.80
80248;BME280;69560;52.206;21.018;2023-09-07T03:10:29;101141.59;;;19.61;54.72
80248;BME280;69560;52.206;21.018;2023-09-07T03:12:56;101143.36;;;19.61;54.75
80248;BME280;69560;52.206;21.018;2023-09-07T03:15:22;101143.85;;;19.60;54.89
80248;BME280;69560;52.206;21.018;2023-09-07T03:17:49;101152.21;;;19.63;55.07
80248;BME280;69560;52.206;21.018;2023-09-07T03:20:15;101153.90;;;19.64;54.87
80248;BME280;69560;52.206;21.018;2023-09-07T03:22:43;101155.81;;;19.64;55.01
80248;BME280;69560;52.206;21.018;2023-09-07T03:25:11;101154.54;;;19.64;55.01
80248;BME280;69560;52.206;21.018;2023-09-07T03:27:37;101151.17;;;19.62;54.92
80248;BME280;69560;52.206;21.018;2023-09-07T03:30:05;101149.64;;;19.60;55.14
80248;BME280;69560;52.206;21.018;2023-09-07T03:32:32;101150.85;;;19.58;55.09
80248;BME280;69560;52.206;21.018;2023-09-07T03:35:00;101146.52;;;19.56;55.24
80248;BME280;69560;52.206;21.018;2023-09-07T03:37:30;101150.30;;;19.55;55.20
80248;BME280;69560;52.206;21.018;2023-09-07T03:39:56;101152.39;;;19.55;55.09
80248;BME280;69560;52.206;21.018;2023-09-07T03:42:23;101154.88;;;19.56;55.16
80248;BME280;69560;52.206;21.018;2023-09-07T03:44:50;101153.91;;;19.57;55.16
80248;BME280;69560;52.206;21.018;2023-09-07T03:47:17;101153.83;;;19.58;55.39
80248;BME280;69560;52.206;21.018;2023-09-07T03:49:43;101153.45;;;19.55;55.24
80248;BME280;69560;52.206;21.018;2023-09-07T03:52:10;101152.70;;;19.54;55.51
80248;BME280;69560;52.206;21.018;2023-09-07T03:54:38;101156.16;;;19.53;55.72
80248;BME280;69560;52.206;21.018;2023-09-07T03:57:04;101157.77;;;19.52;55.70
80248;BME280;69560;52.206;21.018;2023-09-07T03:59:30;101160.42;;;19.51;55.83
80248;BME280;69560;52.206;21.018;2023-09-07T04:01:57;101161.00;;;19.50;56.05
80248;BME280;69560;52.206;21.018;2023-09-07T04:04:24;101158.10;;;19.51;56.10
80248;BME280;69560;52.206;21.018;2023-09-07T04:06:50;101156.58;;;19.53;56.12
80248;BME280;69560;52.206;21.018;2023-09-07T04:09:17;101159.39;;;19.55;56.16
80248;BME280;69560;52.206;21.018;2023-09-07T04:11:43;101158.89;;;19.57;56.46
80248;BME280;69560;52.206;21.018;2023-09-07T04:14:09;101161.07;;;19.59;56.37
80248;BME280;69560;52.206;21.018;2023-09-07T04:16:36;101158.08;;;19.59;56.55
80248;BME280;69560;52.206;21.018;2023-09-07T04:19:04;101160.26;;;19.60;56.43
80248;BME280;69560;52.206;21.018;2023-09-07T04:21:30;101160.17;;;19.58;56.52
80248;BME280;69560;52.206;21.018;2023-09-07T04:23:57;101163.55;;;19.58;56.68
80248;BME280;69560;52.206;21.018;2023-09-07T04:26:23;101167.98;;;19.57;56.73
80248;BME280;69560;52.206;21.018;2023-09-07T04:28:50;101163.39;;;19.58;56.77
80248;BME280;69560;52.206;21.018;2023-09-07T04:31:16;101164.44;;;19.60;56.71
80248;BME280;69560;52.206;21.018;2023-09-07T04:33:42;101161.86;;;19.61;56.71
80248;BME280;69560;52.206;21.018;2023-09-07T04:36:13;101165.40;;;19.61;56.61
80248;BME280;69560;52.206;21.018;2023-09-07T04:38:41;101163.15;;;19.59;56.75
80248;BME280;69560;52.206;21.018;2023-09-07T04:41:12;101165.49;;;19.58;56.83
80248;BME280;69560;52.206;21.018;2023-09-07T04:43:40;101165.49;;;19.56;56.89
80248;BME280;69560;52.206;21.018;2023-09-07T04:46:12;101166.38;;;19.54;56.77
80248;BME280;69560;52.206;21.018;2023-09-07T04:48:40;101170.23;;;19.53;56.95
80248;BME280;69560;52.206;21.018;2023-09-07T04:51:10;101170.09;;;19.53;56.94
80248;BME280;69560;52.206;21.018;2023-09-07T04:53:39;101173.70;;;19.54;56.96
80248;BME280;69560;52.206;21.018;2023-09-07T04:56:07;101176.34;;;19.56;57.15
80248;BME280;69560;52.206;21.018;2023-09-07T04:58:37;101178.27;;;19.59;57.01
80248;BME280;69560;52.206;21.018;2023-09-07T05:01:04;101182.36;;;19.62;57.09
80248;BME280;69560;52.206;21.018;2023-09-07T05:03:31;101183.63;;;19.65;57.03
80248;BME280;69560;52.206;21.018;2023-09-07T05:05:59;101190.54;;;19.68;57.09
80248;BME280;69560;52.206;21.018;2023-09-07T05:08:26;101190.45;;;19.70;57.00
80248;BME280;69560;52.206;21.018;2023-09-07T05:11:00;101191.90;;;19.72;57.02
80248;BME280;69560;52.206;21.018;2023-09-07T05:13:29;101191.33;;;19.75;57.16
80248;BME280;69560;52.206;21.018;2023-09-07T05:15:57;101197.20;;;19.78;56.85
80248;BME280;69560;52.206;21.018;2023-09-07T05:18:24;101196.05;;;19.81;57.05
80248;BME280;69560;52.206;21.018;2023-09-07T05:20:50;101197.64;;;19.83;57.11
80248;BME280;69560;52.206;21.018;2023-09-07T05:23:18;101197.89;;;19.85;57.09
80248;BME280;69560;52.206;21.018;2023-09-07T05:25:50;101201.90;;;19.87;56.95
80248;BME280;69560;52.206;21.018;2023-09-07T05:28:20;101208.10;;;19.87;57.06
80248;BME280;69560;52.206;21.018;2023-09-07T05:30:47;101204.55;;;19.89;56.95
80248;BME280;69560;52.206;21.018;2023-09-07T05:33:15;101203.10;;;19.89;57.11
80248;BME280;69560;52.206;21.018;2023-09-07T05:35:43;101208.96;;;19.92;56.83
80248;BME280;69560;52.206;21.018;2023-09-07T05:38:09;101210.33;;;19.93;56.93
80248;BME280;69560;52.206;21.018;2023-09-07T05:40:37;101204.53;;;19.95;56.78
80248;BME280;69560;52.206;21.018;2023-09-07T05:43:04;101208.60;;;20.00;56.78
80248;BME280;69560;52.206;21.018;2023-09-07T05:45:35;101210.04;;;20.03;56.69
80248;BME280;69560;52.206;21.018;2023-09-07T05:48:03;101213.01;;;20.07;56.55
80248;BME280;69560;52.206;21.018;2023-09-07T05:50:33;101214.14;;;20.08;56.67
80248;BME280;69560;52.206;21.018;2023-09-07T05:53:00;101216.92;;;20.13;56.51
80248;BME280;69560;52.206;21.018;2023-09-07T05:55:26;101217.64;;;20.16;56.63
80248;BME280;69560;52.206;21.018;2023-09-07T05:57:56;101222.55;;;20.21;56.58
80248;BME280;69560;52.206;21.018;2023-09-07T06:00:23;101224.63;;;20.26;56.47
80248;BME280;69560;52.206;21.018;2023-09-07T06:02:50;101229.98;;;20.30;56.49
80248;BME280;69560;52.206;21.018;2023-09-07T06:05:17;101229.73;;;20.36;56.33
80248;BME280;69560;52.206;21.018;2023-09-07T06:07:44;101227.69;;;20.40;56.34
80248;BME280;69560;52.206;21.018;2023-09-07T06:10:11;101233.94;;;20.45;56.32
80248;BME280;69560;52.206;21.018;2023-09-07T06:12:38;101233.74;;;20.52;56.18
80248;BME280;69560;52.206;21.018;2023-09-07T06:15:05;101236.74;;;20.61;56.07
80248;BME280;69560;52.206;21.018;2023-09-07T06:17:32;101234.37;;;20.66;56.06
80248;BME280;69560;52.206;21.018;2023-09-07T06:19:59;101232.33;;;20.72;55.87
80248;BME280;69560;52.206;21.018;2023-09-07T06:22:25;101230.77;;;20.76;55.80
80248;BME280;69560;52.206;21.018;2023-09-07T06:24:52;101234.13;;;20.81;55.71
80248;BME280;69560;52.206;21.018;2023-09-07T06:27:18;101234.98;;;20.85;55.70
80248;BME280;69560;52.206;21.018;2023-09-07T06:29:45;101239.14;;;20.89;55.64
80248;BME280;69560;52.206;21.018;2023-09-07T06:32:11;101237.90;;;20.93;55.58
80248;BME280;69560;52.206;21.018;2023-09-07T06:34:39;101240.52;;;20.97;55.55
80248;BME280;69560;52.206;21.018;2023-09-07T06:37:06;101240.35;;;21.00;55.54
80248;BME280;69560;52.206;21.018;2023-09-07T06:39:32;101241.15;;;21.03;55.46
80248;BME280;69560;52.206;21.018;2023-09-07T06:41:59;101243.95;;;21.07;55.31
80248;BME280;69560;52.206;21.018;2023-09-07T06:44:26;101240.22;;;21.10;55.17
80248;BME280;69560;52.206;21.018;2023-09-07T06:46:52;101241.34;;;21.12;55.13
80248;BME280;69560;52.206;21.018;2023-09-07T06:49:19;101238.25;;;21.15;55.12
80248;BME280;69560;52.206;21.018;2023-09-07T06:51:46;101243.38;;;21.18;54.94
80248;BME280;69560;52.206;21.018;2023-09-07T06:54:13;101243.44;;;21.21;54.82
80248;BME280;69560;52.206;21.018;2023-09-07T06:56:40;101247.84;;;21.25;54.81
80248;BME280;69560;52.206;21.018;2023-09-07T06:59:06;101248.44;;;21.30;54.90
80248;BME280;69560;52.206;21.018;2023-09-07T07:01:33;101250.40;;;21.35;54.90
80248;BME280;69560;52.206;21.018;2023-09-07T07:03:59;101251.56;;;21.41;54.83
80248;BME280;69560;52.206;21.018;2023-09-07T07:06:26;101250.86;;;21.47;54.71
80248;BME280;69560;52.206;21.018;2023-09-07T07:08:52;101251.77;;;21.52;54.63
80248;BME280;69560;52.206;21.018;2023-09-07T07:11:19;101251.72;;;21.58;54.43
80248;BME280;69560;52.206;21.018;2023-09-07T07:13:46;101254.97;;;21.64;54.53
80248;BME280;69560;52.206;21.018;2023-09-07T07:16:12;101252.16;;;21.70;54.31
80248;BME280;69560;52.206;21.018;2023-09-07T07:18:39;101258.08;;;21.76;54.26
80248;BME280;69560;52.206;21.018;2023-09-07T07:21:06;101259.33;;;21.82;54.18
80248;BME280;69560;52.206;21.018;2023-09-07T07:23:32;101260.87;;;21.88;53.82
80248;BME280;69560;52.206;21.018;2023-09-07T07:25:59;101263.46;;;21.95;53.94
80248;BME280;69560;52.206;21.018;2023-09-07T07:28:25;101261.99;;;22.04;53.72
80248;BME280;69560;52.206;21.018;2023-09-07T07:30:52;101262.55;;;22.11;53.71
80248;BME280;69560;52.206;21.018;2023-09-07T07:33:20;101265.84;;;22.19;53.62
80248;BME280;69560;52.206;21.018;2023-09-07T07:35:46;101265.73;;;22.27;53.38
80248;BME280;69560;52.206;21.018;2023-09-07T07:38:14;101264.77;;;22.35;53.38
80248;BME280;69560;52.206;21.018;2023-09-07T07:40:41;101264.65;;;22.43;53.38
80248;BME280;69560;52.206;21.018;2023-09-07T07:43:09;101263.58;;;22.51;53.16
80248;BME280;69560;52.206;21.018;2023-09-07T07:45:36;101267.51;;;22.62;53.16
80248;BME280;69560;52.206;21.018;2023-09-07T07:48:05;101272.09;;;22.74;53.15
80248;BME280;69560;52.206;21.018;2023-09-07T07:50:39;101269.86;;;22.88;53.17
80248;BME280;69560;52.206;21.018;2023-09-07T07:53:07;101269.90;;;23.02;52.88
80248;BME280;69560;52.206;21.018;2023-09-07T07:55:35;101272.44;;;23.15;52.68
80248;BME280;69560;52.206;21.018;2023-09-07T07:58:05;101270.85;;;23.28;52.38
80248;BME280;69560;52.206;21.018;2023-09-07T08:00:38;101271.15;;;23.41;52.38
80248;BME280;69560;52.206;21.018;2023-09-07T08:03:05;101273.47;;;23.56;52.25
80248;BME280;69560;52.206;21.018;2023-09-07T08:05:34;101275.10;;;23.69;52.06
80248;BME280;69560;52.206;21.018;2023-09-07T08:08:00;101277.23;;;23.81;51.84
80248;BME280;69560;52.206;21.018;2023-09-07T08:10:27;101273.41;;;23.90;51.45
80248;BME280;69560;52.206;21.018;2023-09-07T08:12:55;101277.53;;;23.99;51.19
80248;BME280;69560;52.206;21.018;2023-09-07T08:15:22;101274.30;;;24.08;51.07
80248;BME280;69560;52.206;21.018;2023-09-07T08:17:51;101271.13;;;24.17;50.99
80248;BME280;69560;52.206;21.018;2023-09-07T08:20:18;101274.67;;;24.26;50.82
80248;BME280;69560;52.206;21.018;2023-09-07T08:22:44;101279.94;;;24.37;50.69
80248;BME280;69560;52.206;21.018;2023-09-07T08:25:13;101274.96;;;24.50;50.65
80248;BME280;69560;52.206;21.018;2023-09-07T08:27:40;101274.88;;;24.61;50.39
80248;BME280;69560;52.206;21.018;2023-09-07T08:30:15;101274.83;;;24.71;50.22
80248;BME280;69560;52.206;21.018;2023-09-07T08:32:44;101273.23;;;24.78;50.11
80248;BME280;69560;52.206;21.018;2023-09-07T08:35:12;101278.02;;;24.85;49.84
80248;BME280;69560;52.206;21.018;2023-09-07T08:37:40;101276.92;;;24.90;49.76
80248;BME280;69560;52.206;21.018;2023-09-07T08:40:07;101279.95;;;24.96;49.47
80248;BME280;69560;52.206;21.018;2023-09-07T08:42:36;101278.64;;;25.00;49.32
80248;BME280;69560;52.206;21.018;2023-09-07T08:45:08;101281.70;;;25.07;49.18
80248;BME280;69560;52.206;21.018;2023-09-07T08:47:36;101283.89;;;25.14;49.03
80248;BME280;69560;52.206;21.018;2023-09-07T08:50:05;101286.40;;;25.21;49.06
80248;BME280;69560;52.206;21.018;2023-09-07T08:52:35;101284.90;;;25.29;48.94
80248;BME280;69560;52.206;21.018;2023-09-07T08:55:02;101282.78;;;25.40;48.83
80248;BME280;69560;52.206;21.018;2023-09-07T08:57:31;101278.55;;;25.53;48.64
80248;BME280;69560;52.206;21.018;2023-09-07T08:59:58;101276.20;;;25.71;48.37
80248;BME280;69560;52.206;21.018;2023-09-07T09:02:25;101276.89;;;25.88;48.34
80248;BME280;69560;52.206;21.018;2023-09-07T09:04:52;101281.27;;;26.04;48.35
80248;BME280;69560;52.206;21.018;2023-09-07T09:07:19;101278.46;;;26.23;48.27
80248;BME280;69560;52.206;21.018;2023-09-07T09:09:47;101275.61;;;26.47;48.05
80248;BME280;69560;52.206;21.018;2023-09-07T09:12:13;101280.40;;;26.70;47.82
80248;BME280;69560;52.206;21.018;2023-09-07T09:14:43;101278.09;;;26.84;47.57
80248;BME280;69560;52.206;21.018;2023-09-07T09:17:14;101279.14;;;26.95;47.26
80248;BME280;69560;52.206;21.018;2023-09-07T09:19:41;101277.02;;;27.05;46.94
80248;BME280;69560;52.206;21.018;2023-09-07T09:22:09;101277.14;;;27.14;46.69
80248;BME280;69560;52.206;21.018;2023-09-07T09:24:36;101272.03;;;27.20;46.20
80248;BME280;69560;52.206;21.018;2023-09-07T09:27:04;101274.39;;;27.30;46.15
80248;BME280;69560;52.206;21.018;2023-09-07T09:29:34;101271.98;;;27.57;46.07
80248;BME280;69560;52.206;21.018;2023-09-07T09:32:02;101271.49;;;27.91;45.75
80248;BME280;69560;52.206;21.018;2023-09-07T09:34:32;101271.36;;;28.28;45.70
80248;BME280;69560;52.206;21.018;2023-09-07T09:36:59;101270.75;;;28.82;45.10
80248;BME280;69560;52.206;21.018;2023-09-07T09:39:25;101273.17;;;30.18;44.25
80248;BME280;69560;52.206;21.018;2023-09-07T09:41:52;101275.55;;;32.01;43.47
80248;BME280;69560;52.206;21.018;2023-09-07T09:44:22;101275.34;;;34.21;42.82
80248;BME280;69560;52.206;21.018;2023-09-07T09:46:55;101276.26;;;36.64;41.61
80248;BME280;69560;52.206;21.018;2023-09-07T09:49:23;101272.52;;;38.83;39.51
80248;BME280;69560;52.206;21.018;2023-09-07T09:51:49;101283.48;;;40.71;37.22
80248;BME280;69560;52.206;21.018;2023-09-07T09:54:20;101277.05;;;42.50;34.78
80248;BME280;69560;52.206;21.018;2023-09-07T09:56:48;101280.59;;;44.10;32.90
80248;BME280;69560;52.206;21.018;2023-09-07T09:59:15;101285.94;;;45.60;30.96
80248;BME280;69560;52.206;21.018;2023-09-07T10:01:47;101280.45;;;46.84;29.17
80248;BME280;69560;52.206;21.018;2023-09-07T10:04:16;101284.43;;;48.06;27.50
80248;BME280;69560;52.206;21.018;2023-09-07T10:06:59;101287.34;;;49.18;26.02
80248;BME280;69560;52.206;21.018;2023-09-07T10:09:34;101286.20;;;50.27;24.41
80248;BME280;69560;52.206;21.018;2023-09-07T10:12:01;101286.67;;;51.10;23.16
80248;BME280;69560;52.206;21.018;2023-09-07T10:14:42;101285.38;;;51.92;21.96
80248;BME280;69560;52.206;21.018;2023-09-07T10:17:08;101284.48;;;52.69;20.95
80248;BME280;69560;52.206;21.018;2023-09-07T10:19:35;101284.89;;;53.42;20.23
80248;BME280;69560;52.206;21.018;2023-09-07T10:22:04;101282.56;;;53.96;19.38
80248;BME280;69560;52.206;21.018;2023-09-07T10:24:33;101280.54;;;54.24;18.62
80248;BME280;69560;52.206;21.018;2023-09-07T10:27:04;101281.48;;;54.33;17.78
80248;BME280;69560;52.206;21.018;2023-09-07T10:29:44;101284.92;;;54.54;17.37
80248;BME280;69560;52.206;21.018;2023-09-07T10:32:13;101286.15;;;55.12;16.76
80248;BME280;69560;52.206;21.018;2023-09-07T10:34:42;101288.44;;;55.57;16.23
80248;BME280;69560;52.206;21.018;2023-09-07T10:37:10;101284.30;;;55.94;15.81
80248;BME280;69560;52.206;21.018;2023-09-07T10:39:40;101281.77;;;56.00;15.23
80248;BME280;69560;52.206;21.018;2023-09-07T10:42:25;101276.94;;;54.19;14.73
80248;BME280;69560;52.206;21.018;2023-09-07T10:44:52;101274.48;;;52.06;14.49
80248;BME280;69560;52.206;21.018;2023-09-07T10:47:19;101274.25;;;51.34;14.87
80248;BME280;69560;52.206;21.018;2023-09-07T10:49:46;101273.84;;;51.24;15.04
80248;BME280;69560;52.206;21.018;2023-09-07T10:52:12;101270.97;;;51.03;15.27
80248;BME280;69560;52.206;21.018;2023-09-07T10:54:39;101272.60;;;49.74;15.21
80248;BME280;69560;52.206;21.018;2023-09-07T10:57:10;101268.20;;;48.37;15.55
80248;BME280;69560;52.206;21.018;2023-09-07T10:59:37;101265.19;;;47.16;15.80
80248;BME280;69560;52.206;21.018;2023-09-07T11:02:06;101259.41;;;46.75;16.14
80248;BME280;69560;52.206;21.018;2023-09-07T11:04:33;101267.91;;;45.43;16.38
80248;BME280;69560;52.206;21.018;2023-09-07T11:07:00;101260.52;;;44.16;17.00
80248;BME280;69560;52.206;21.018;2023-09-07T11:09:30;101257.00;;;42.86;17.12
80248;BME280;69560;52.206;21.018;2023-09-07T11:11:56;101260.63;;;41.61;17.73
80248;BME280;69560;52.206;21.018;2023-09-07T11:14:29;101257.70;;;40.56;18.41
80248;BME280;69560;52.206;21.018;2023-09-07T11:16:56;101257.90;;;39.73;19.24
80248;BME280;69560;52.206;21.018;2023-09-07T11:19:22;101251.39;;;39.11;20.04
80248;BME280;69560;52.206;21.018;2023-09-07T11:21:49;101257.46;;;38.74;20.60
80248;BME280;69560;52.206;21.018;2023-09-07T11:24:17;101253.60;;;38.47;21.18
80248;BME280;69560;52.206;21.018;2023-09-07T11:26:46;101247.85;;;38.21;21.44
80248;BME280;69560;52.206;21.018;2023-09-07T11:29:14;101240.75;;;37.99;21.97
80248;BME280;69560;52.206;21.018;2023-09-07T11:31:42;101243.95;;;37.75;22.29
80248;BME280;69560;52.206;21.018;2023-09-07T11:34:10;101242.23;;;37.55;22.83
80248;BME280;69560;52.206;21.018;2023-09-07T11:36:38;101241.23;;;37.42;22.74
80248;BME280;69560;52.206;21.018;2023-09-07T11:39:05;101237.10;;;37.27;23.13
80248;BME280;69560;52.206;21.018;2023-09-07T11:41:42;101235.38;;;37.16;23.33
80248;BME280;69560;52.206;21.018;2023-09-07T11:44:10;101233.81;;;37.05;23.69
80248;BME280;69560;52.206;21.018;2023-09-07T11:46:37;101235.41;;;36.98;23.68
80248;BME280;69560;52.206;21.018;2023-09-07T11:49:04;101237.42;;;36.91;23.95
80248;BME280;69560;52.206;21.018;2023-09-07T11:51:35;101236.83;;;36.83;24.11
80248;BME280;69560;52.206;21.018;2023-09-07T11:54:02;101240.50;;;36.75;24.23
80248;BME280;69560;52.206;21.018;2023-09-07T11:56:29;101238.91;;;36.58;24.10
80248;BME280;69560;52.206;21.018;2023-09-07T11:58:56;101238.44;;;36.27;24.01
80248;BME280;69560;52.206;21.018;2023-09-07T12:01:23;101235.06;;;35.90;23.94
80248;BME280;69560;52.206;21.018;2023-09-07T12:03:49;101238.41;;;35.53;24.16
80248;BME280;69560;52.206;21.018;2023-09-07T12:06:15;101231.31;;;35.11;24.06
80248;BME280;69560;52.206;21.018;2023-09-07T12:09:04;101229.44;;;34.78;24.31
80248;BME280;69560;52.206;21.018;2023-09-07T12:11:33;101230.95;;;34.59;24.68
80248;BME280;69560;52.206;21.018;2023-09-07T12:13:59;101230.70;;;34.45;24.83
80248;BME280;69560;52.206;21.018;2023-09-07T12:16:27;101230.14;;;34.36;25.37
80248;BME280;69560;52.206;21.018;2023-09-07T12:18:54;101230.61;;;34.31;25.60
80248;BME280;69560;52.206;21.018;2023-09-07T12:21:21;101228.41;;;34.27;25.78
80248;BME280;69560;52.206;21.018;2023-09-07T12:23:48;101227.54;;;34.24;25.81
80248;BME280;69560;52.206;21.018;2023-09-07T12:26:14;101227.98;;;34.21;25.91
80248;BME280;69560;52.206;21.018;2023-09-07T12:28:43;101223.19;;;34.18;25.83
80248;BME280;69560;52.206;21.018;2023-09-07T12:31:09;101223.19;;;34.17;25.97
80248;BME280;69560;52.206;21.018;2023-09-07T12:33:38;101220.05;;;34.07;26.08
80248;BME280;69560;52.206;21.018;2023-09-07T12:36:04;101215.41;;;33.85;26.01
80248;BME280;69560;52.206;21.018;2023-09-07T12:38:36;101215.03;;;33.70;26.12
80248;BME280;69560;52.206;21.018;2023-09-07T12:41:02;101214.88;;;33.62;26.40
80248;BME280;69560;52.206;21.018;2023-09-07T12:43:29;101214.82;;;33.53;26.57